Time,TemperatureF,DewpointF,PressureIn,WindDirection,WindDirectionDegrees,WindSpeedMPH,WindSpeedGustMPH,Humidity,HourlyPrecipIn,Conditions,Clouds,dailyrainin,SolarRadiationWatts/m^2,SoftwareType,DateUTC
2013-04-14 00:02:00,54.0,39.0,29.92,WNW,294,11.0,18.0,56,-99.99,,,0.00,0.000000,,2013-04-14 07:02:00,
2013-04-14 00:11:00,54.0,39.0,29.92,WNW,294,11.0,18.0,56,-99.99,,,0.00,0.000000,,2013-04-14 07:11:00,
2013-04-14 00:42:00,54.0,38.0,29.91,WNW,290,8.0,18.0,54,0.00,,,0.00,0.000000,,2013-04-14 07:42:00,
2013-04-14 00:52:00,54.0,38.0,29.91,WNW,290,8.0,18.0,54,0.00,,,0.00,0.000000,,2013-04-14 07:52:00,
2013-04-14 01:02:00,54.0,38.0,29.91,WNW,290,8.0,18.0,54,0.00,,,0.00,0.000000,,2013-04-14 08:02:00,
2013-04-14 01:12:00,54.0,38.0,29.91,WNW,290,8.0,18.0,54,0.00,,,0.00,0.000000,,2013-04-14 08:12:00,
2013-04-14 01:43:00,52.0,34.0,29.90,NW,306,12.0,16.0,51,0.00,,,0.00,0.000000,,2013-04-14 08:43:00,
2013-04-14 01:52:00,52.0,34.0,29.90,NW,306,12.0,16.0,51,0.00,,,0.00,0.000000,,2013-04-14 08:52:00,
2013-04-14 02:02:00,52.0,34.0,29.90,NW,306,12.0,16.0,51,0.00,,,0.00,0.000000,,2013-04-14 09:02:00,
2013-04-14 02:12:00,52.0,34.0,29.90,NW,306,12.0,16.0,51,0.00,,,0.00,0.000000,,2013-04-14 09:12:00,
2013-04-14 02:43:00,51.0,28.0,29.90,NNW,333,19.0,23.0,41,0.00,,,-99.99,0.000000,,2013-04-14 09:43:00,
2013-04-14 02:53:00,51.0,28.0,29.90,NNW,333,19.0,23.0,41,0.00,,,-99.99,0.000000,,2013-04-14 09:53:00,
2013-04-14 03:03:00,51.0,28.0,29.90,NNW,333,19.0,23.0,41,0.00,,,-99.99,0.000000,,2013-04-14 10:03:00,
2013-04-14 03:12:00,51.0,28.0,29.90,NNW,333,19.0,23.0,41,0.00,,,-99.99,0.000000,,2013-04-14 10:12:00,
2013-04-14 03:33:00,51.0,20.0,29.88,NNW,341,20.0,24.0,29,0.00,,,0.00,0.000000,,2013-04-14 10:33:00,
2013-04-14 03:43:00,51.0,20.0,29.88,NNW,341,20.0,24.0,29,0.00,,,0.00,0.000000,,2013-04-14 10:43:00,
2013-04-14 03:52:00,51.0,20.0,29.88,NNW,341,20.0,24.0,29,0.00,,,0.00,0.000000,,2013-04-14 10:52:00,
2013-04-14 04:02:00,51.0,20.0,29.88,NNW,341,20.0,24.0,29,0.00,,,0.00,0.000000,,2013-04-14 11:02:00,
2013-04-14 04:12:00,51.0,20.0,29.88,NNW,341,20.0,24.0,29,0.00,,,0.00,0.000000,,2013-04-14 11:12:00,
2013-04-14 04:33:00,50.0,16.0,29.89,NNW,343,19.0,24.0,26,0.00,,,0.00,0.000000,,2013-04-14 11:33:00,
2013-04-14 04:42:00,50.0,16.0,29.89,NNW,343,19.0,24.0,26,0.00,,,0.00,0.000000,,2013-04-14 11:42:00,
2013-04-14 04:53:00,50.0,16.0,29.89,NNW,343,19.0,24.0,26,0.00,,,0.00,0.000000,,2013-04-14 11:53:00,
2013-04-14 05:02:00,50.0,16.0,29.89,NNW,343,19.0,24.0,26,0.00,,,0.00,0.000000,,2013-04-14 12:02:00,
2013-04-14 05:12:00,50.0,16.0,29.89,NNW,343,19.0,24.0,26,0.00,,,0.00,0.000000,,2013-04-14 12:12:00,
2013-04-14 05:42:00,50.0,11.0,29.88,North,351,9.0,21.0,20,0.00,,,0.00,0.000000,,2013-04-14 12:42:00,
2013-04-14 05:52:00,50.0,11.0,29.88,North,351,9.0,21.0,20,0.00,,,0.00,0.000000,,2013-04-14 12:52:00,
2013-04-14 06:33:00,45.0,20.0,29.87,NNW,331,20.0,24.0,36,0.00,,,0.00,0.000000,,2013-04-14 13:33:00,
2013-04-14 06:43:00,45.0,20.0,29.87,NNW,331,20.0,24.0,36,0.00,,,0.00,0.000000,,2013-04-14 13:43:00,
2013-04-14 06:52:00,45.0,20.0,29.87,NNW,331,20.0,24.0,36,0.00,,,0.00,0.000000,,2013-04-14 13:52:00,
2013-04-14 07:02:00,45.0,20.0,29.87,NNW,331,20.0,24.0,36,0.00,,,0.00,0.000000,,2013-04-14 14:02:00,
2013-04-14 07:11:00,45.0,20.0,29.87,NNW,331,20.0,24.0,36,0.00,,,0.00,0.000000,,2013-04-14 14:11:00,
2013-04-14 07:42:00,46.0,20.0,29.87,NNW,347,20.0,25.0,35,0.00,,,0.00,0.000000,,2013-04-14 14:42:00,
2013-04-14 07:53:00,46.0,20.0,29.87,NNW,347,20.0,25.0,35,0.00,,,0.00,0.000000,,2013-04-14 14:53:00,
2013-04-14 08:02:00,46.0,20.0,29.87,NNW,347,20.0,25.0,35,0.00,,,0.00,0.000000,,2013-04-14 15:02:00,
2013-04-14 08:12:00,46.0,20.0,29.87,NNW,347,20.0,25.0,35,0.00,,,0.00,0.000000,,2013-04-14 15:12:00,
2013-04-14 08:33:00,44.0,18.0,29.89,NNW,336,20.0,28.0,35,0.00,,,0.00,6.000000,,2013-04-14 15:33:00,
2013-04-14 08:43:00,44.0,18.0,29.89,NNW,336,20.0,28.0,35,0.00,,,0.00,6.000000,,2013-04-14 15:43:00,
2013-04-14 08:53:00,44.0,18.0,29.89,NNW,336,20.0,28.0,35,0.00,,,0.00,6.000000,,2013-04-14 15:53:00,
2013-04-14 09:03:00,44.0,18.0,29.89,NNW,336,20.0,28.0,35,0.00,,,0.00,6.000000,,2013-04-14 16:03:00,
2013-04-14 09:13:00,44.0,18.0,29.89,NNW,336,20.0,28.0,35,0.00,,,0.00,6.000000,,2013-04-14 16:13:00,
2013-04-14 09:33:00,47.0,18.0,29.91,NW,326,18.0,32.0,31,0.00,,,0.00,128.000000,,2013-04-14 16:33:00,
2013-04-14 09:43:00,47.0,18.0,29.91,NW,326,18.0,32.0,31,0.00,,,0.00,128.000000,,2013-04-14 16:43:00,
2013-04-14 09:53:00,47.0,18.0,29.91,NW,326,18.0,32.0,31,0.00,,,0.00,128.000000,,2013-04-14 16:53:00,
2013-04-14 10:02:00,47.0,18.0,29.91,NW,326,18.0,32.0,31,0.00,,,0.00,128.000000,,2013-04-14 17:02:00,
2013-04-14 10:12:00,47.0,18.0,29.91,NW,326,18.0,32.0,31,0.00,,,0.00,128.000000,,2013-04-14 17:12:00,
2013-04-14 10:42:00,52.0,11.0,29.91,NW,306,7.0,25.0,19,0.00,,,0.00,390.000000,,2013-04-14 17:42:00,
2013-04-14 10:53:00,52.0,11.0,29.91,NW,306,7.0,25.0,19,0.00,,,0.00,390.000000,,2013-04-14 17:53:00,
2013-04-14 11:02:00,52.0,11.0,29.91,NW,306,7.0,25.0,19,0.00,,,0.00,390.000000,,2013-04-14 18:02:00,
2013-04-14 11:12:00,52.0,11.0,29.91,NW,306,7.0,25.0,19,0.00,,,0.00,390.000000,,2013-04-14 18:12:00,
2013-04-14 11:43:00,51.0,16.0,29.92,WNW,286,6.0,20.0,25,0.00,,,0.00,608.000000,,2013-04-14 18:43:00,
2013-04-14 11:53:00,51.0,16.0,29.92,WNW,286,6.0,20.0,25,0.00,,,0.00,608.000000,,2013-04-14 18:53:00,
2013-04-14 12:03:00,51.0,16.0,29.92,WNW,286,6.0,20.0,25,0.00,,,0.00,608.000000,,2013-04-14 19:03:00,
2013-04-14 12:12:00,51.0,16.0,29.92,WNW,286,6.0,20.0,25,0.00,,,0.00,608.000000,,2013-04-14 19:12:00,
2013-04-14 12:43:00,53.0,18.0,29.92,WNW,282,6.0,21.0,25,0.00,,,0.00,794.000000,,2013-04-14 19:43:00,
2013-04-14 12:52:00,53.0,18.0,29.92,WNW,282,6.0,21.0,25,0.00,,,0.00,794.000000,,2013-04-14 19:52:00,
2013-04-14 13:12:00,53.0,18.0,29.92,WNW,282,6.0,21.0,25,0.00,,,0.00,794.000000,,2013-04-14 20:12:00,
2013-04-14 13:43:00,54.0,28.0,29.91,SSW,205,5.0,18.0,36,0.00,,,0.00,874.000000,,2013-04-14 20:43:00,
2013-04-14 13:52:00,54.0,28.0,29.91,SSW,205,5.0,18.0,36,0.00,,,0.00,874.000000,,2013-04-14 20:52:00,
2013-04-14 14:02:00,54.0,28.0,29.91,SSW,205,5.0,18.0,36,0.00,,,0.00,874.000000,,2013-04-14 21:02:00,
2013-04-14 14:12:00,54.0,28.0,29.91,SSW,205,5.0,18.0,36,0.00,,,0.00,874.000000,,2013-04-14 21:12:00,
2013-04-14 14:43:00,52.0,27.0,29.91,SE,124,6.0,19.0,38,0.00,,,0.00,1007.000000,,2013-04-14 21:43:00,
2013-04-14 14:53:00,52.0,27.0,29.91,SE,124,6.0,19.0,38,0.00,,,0.00,1007.000000,,2013-04-14 21:53:00,
2013-04-14 15:02:00,52.0,27.0,29.91,SE,124,6.0,19.0,38,0.00,,,0.00,1007.000000,,2013-04-14 22:02:00,
2013-04-14 15:12:00,52.0,27.0,29.91,SE,124,6.0,19.0,38,0.00,,,0.00,1007.000000,,2013-04-14 22:12:00,
2013-04-14 15:44:00,53.0,33.0,29.89,WSW,238,12.0,33.0,47,0.00,,,0.00,1010.000000,,2013-04-14 22:44:00,
2013-04-14 15:52:00,53.0,33.0,29.89,WSW,238,12.0,33.0,47,0.00,,,0.00,1010.000000,,2013-04-14 22:52:00,
2013-04-14 16:02:00,53.0,33.0,29.89,WSW,238,12.0,33.0,47,0.00,,,0.00,1010.000000,,2013-04-14 23:02:00,
2013-04-14 16:12:00,53.0,33.0,29.89,WSW,238,12.0,33.0,47,0.00,,,0.00,1010.000000,,2013-04-14 23:12:00,
2013-04-14 16:33:00,51.0,33.0,29.88,WNW,296,17.0,34.0,50,0.00,,,0.00,954.000000,,2013-04-14 23:33:00,
2013-04-14 16:43:00,51.0,33.0,29.88,WNW,296,17.0,34.0,50,0.00,,,0.00,954.000000,,2013-04-14 23:43:00,
2013-04-14 16:53:00,51.0,33.0,29.88,WNW,296,17.0,34.0,50,0.00,,,0.00,954.000000,,2013-04-14 23:53:00,
2013-04-14 17:02:00,51.0,33.0,29.88,WNW,296,17.0,34.0,50,0.00,,,0.00,954.000000,,2013-04-15 00:02:00,
2013-04-14 17:12:00,51.0,33.0,29.88,WNW,296,17.0,34.0,50,0.00,,,0.00,954.000000,,2013-04-15 00:12:00,
2013-04-14 17:42:00,51.0,37.0,29.86,NW,321,14.0,42.0,58,0.00,,,0.00,831.000000,,2013-04-15 00:42:00,
2013-04-14 17:52:00,51.0,37.0,29.86,NW,321,14.0,42.0,58,0.00,,,0.00,831.000000,,2013-04-15 00:52:00,
2013-04-14 18:02:00,51.0,37.0,29.86,NW,321,14.0,42.0,58,0.00,,,0.00,831.000000,,2013-04-15 01:02:00,
2013-04-14 18:12:00,51.0,37.0,29.86,NW,321,14.0,42.0,58,0.00,,,0.00,831.000000,,2013-04-15 01:12:00,
2013-04-14 18:42:00,48.0,38.0,29.84,North,11,15.0,43.0,68,0.00,,,0.00,660.000000,,2013-04-15 01:42:00,
2013-04-14 18:52:00,48.0,38.0,29.84,North,11,15.0,43.0,68,0.00,,,0.00,660.000000,,2013-04-15 01:52:00,
2013-04-14 19:02:00,48.0,38.0,29.84,North,11,15.0,43.0,68,0.00,,,0.00,660.000000,,2013-04-15 02:02:00,
2013-04-14 19:12:00,48.0,38.0,29.84,North,11,15.0,43.0,68,0.00,,,0.00,660.000000,,2013-04-15 02:12:00,
2013-04-14 19:42:00,44.0,37.0,29.82,South,177,14.0,41.0,76,0.00,,,0.00,212.000000,,2013-04-15 02:42:00,
2013-04-14 19:52:00,44.0,37.0,29.82,South,177,14.0,41.0,76,0.00,,,0.00,212.000000,,2013-04-15 02:52:00,
2013-04-14 20:02:00,44.0,37.0,29.82,South,177,14.0,41.0,76,0.00,,,0.00,212.000000,,2013-04-15 03:02:00,
2013-04-14 20:12:00,44.0,37.0,29.82,South,177,14.0,41.0,76,0.00,,,0.00,212.000000,,2013-04-15 03:12:00,
2013-04-14 20:43:00,40.0,39.0,29.81,NW,324,16.0,46.0,95,0.00,,,0.00,182.000000,,2013-04-15 03:43:00,
2013-04-14 20:54:00,40.0,39.0,29.81,NW,324,16.0,46.0,95,0.00,,,0.00,182.000000,,2013-04-15 03:54:00,
2013-04-14 21:02:00,40.0,39.0,29.81,NW,324,16.0,46.0,95,0.00,,,0.00,182.000000,,2013-04-15 04:02:00,
2013-04-14 21:12:00,40.0,39.0,29.81,NW,324,16.0,46.0,95,0.00,,,0.00,182.000000,,2013-04-15 04:12:00,
2013-04-14 21:43:00,39.0,38.0,29.79,WNW,295,27.0,-999.0,98,0.00,,,0.00,29.000000,,2013-04-15 04:43:00,
2013-04-14 21:52:00,39.0,38.0,29.79,WNW,295,27.0,-999.0,98,0.00,,,0.00,29.000000,,2013-04-15 04:52:00,
2013-04-14 22:02:00,39.0,38.0,29.79,WNW,295,27.0,-999.0,98,0.00,,,0.00,29.000000,,2013-04-15 05:02:00,
2013-04-14 22:12:00,39.0,38.0,29.79,WNW,295,27.0,-999.0,98,0.00,,,0.00,29.000000,,2013-04-15 05:12:00,
2013-04-14 22:33:00,37.0,36.0,29.79,WNW,297,31.0,-999.0,98,0.00,,,0.00,0.000000,,2013-04-15 05:33:00,
2013-04-14 22:43:00,37.0,36.0,29.79,WNW,297,31.0,-999.0,98,0.00,,,0.00,0.000000,,2013-04-15 05:43:00,
2013-04-14 22:52:00,37.0,36.0,29.79,WNW,297,31.0,-999.0,98,0.00,,,0.00,0.000000,,2013-04-15 05:52:00,
2013-04-14 23:01:00,37.0,36.0,29.79,WNW,297,31.0,-999.0,98,0.00,,,0.00,0.000000,,2013-04-15 06:01:00,
2013-04-14 23:12:00,37.0,36.0,29.79,WNW,297,31.0,-999.0,98,0.00,,,0.00,0.000000,,2013-04-15 06:12:00,
2013-04-14 23:43:00,38.0,37.0,29.78,WNW,295,34.0,57.0,98,0.00,,,0.00,0.000000,,2013-04-15 06:43:00,
2013-04-14 23:52:00,38.0,37.0,29.78,WNW,295,34.0,57.0,98,0.00,,,0.00,0.000000,,2013-04-15 06:52:00,